Muncy, PA

6:14 PM EDT on September 26, 2016 (GMT -0400)
K3LYC | | Change Station

Elev 499 ft 41.21 °N, 76.78 °W | Updated 8 minutes ago

Overcast
Overcast
43.3 °F
Feels Like 43.3 °F
N
1.1
Wind Variable Wind from ENE

Today
High -- | Low -- °F
--% Chance of Precip.
Yesterday
High -- | Low -- °F
Precip. -- in
Pressure 29.96 in
Visibility 3.0 miles
Clouds Mostly Cloudy 1100 ft
Overcast 1800 ft
Dew Point 40.9 °F
Humidity 91%
Rainfall in
Snow Depth Not available.
6:59 AM 6:56 PM
Waning Crescent, 16% visible
METAR KIPT 262154Z 09008KT 040V110 3SM BR BKN011 OVC018 17/15 A2996 RMK AO2 SLP146 T01670150
Pressure 29.96 in
Visibility 3.0 miles
Clouds Mostly Cloudy 1100 ft
Overcast 1800 ft
Dew Point 40.9 °F
Humidity 91%
Rainfall in
Snow Depth Not available.
6:59 AM 6:56 PM
Waning Crescent, 16% visible
METAR KIPT 262154Z 09008KT 040V110 3SM BR BKN011 OVC018 17/15 A2996 RMK AO2 SLP146 T01670150

10-Day Weather Forecast

Almanac

Astronomy

Sep. 26, 2016 Rise Set
Actual Time
Civil Twilight
Nautical Twilight
Astronomical Twilight
Moon
Length of Visible Light
Length of Day
Tomorrow will be .
, % of the Moon is Illuminated

Today's Extremes

State Highs State Lows

Community

WunderPhotos

Upload Photos

1,941,978 photos uploaded!

WunderBlog® & News

Nearby

Air Quality

  Air Quality AQ Index Pollutant
Not available.

Snow Depth

Station Depth Elevation

Earthquake Activity

City Distance Mag. Time & Date
Minimum magnitude displayed is 2.5.

Coastal Water Temperatures

Place Temperature

Stations

Nearby Weather Stations

Station Location Temp. Windchill Dew Point Humidity Wind Precip. Elev Updated Type
                   

Watches & Warnings

There are currently no watches in effect.